createdAt,value
2023-01-05T00:00:13.633Z,11.70
2023-01-05T00:01:14.630Z,11.60
2023-01-05T00:02:17.515Z,11.80
2023-01-05T00:03:13.077Z,11.60
2023-01-05T00:04:13.334Z,11.60
2023-01-05T00:05:13.267Z,11.60
2023-01-05T00:06:13.412Z,11.50
2023-01-05T00:07:13.323Z,11.70
2023-01-05T00:08:13.687Z,11.70
2023-01-05T00:09:13.955Z,11.70
2023-01-05T00:10:13.108Z,11.60
2023-01-05T00:11:13.329Z,11.70
2023-01-05T00:12:13.187Z,11.70
2023-01-05T00:13:13.383Z,11.70
2023-01-05T00:14:13.579Z,11.70
2023-01-05T00:15:13.690Z,11.60
2023-01-05T00:16:13.905Z,11.60
2023-01-05T00:17:12.913Z,11.50
2023-01-05T00:18:13.255Z,11.60
2023-01-05T00:19:13.188Z,11.60
2023-01-05T00:20:13.191Z,11.60
2023-01-05T00:21:13.395Z,11.50
2023-01-05T00:22:13.418Z,11.60
2023-01-05T00:23:13.495Z,11.60
2023-01-05T00:24:13.510Z,11.50
2023-01-05T00:25:13.617Z,11.50
2023-01-05T00:26:13.558Z,11.50
2023-01-05T00:27:13.471Z,11.50
2023-01-05T00:28:13.664Z,11.60
2023-01-05T00:29:13.752Z,11.60
2023-01-05T00:30:13.594Z,11.50
2023-01-05T00:31:13.566Z,11.50
2023-01-05T00:32:13.448Z,11.50
2023-01-05T00:33:13.510Z,11.60
2023-01-05T00:34:13.705Z,11.50
2023-01-05T00:35:14.005Z,11.60
2023-01-05T00:36:12.922Z,11.40
2023-01-05T00:37:12.890Z,11.60
2023-01-05T00:38:12.833Z,11.60
2023-01-05T00:39:13.975Z,11.50
2023-01-05T00:40:13.100Z,11.60
2023-01-05T00:41:13.045Z,11.50
2023-01-05T00:42:13.552Z,11.60
2023-01-05T00:43:13.940Z,11.50
2023-01-05T00:44:12.943Z,11.60
2023-01-05T00:45:13.064Z,11.50
2023-01-05T00:46:13.180Z,11.50
2023-01-05T00:47:13.417Z,11.50
2023-01-05T00:48:13.310Z,11.50
2023-01-05T00:49:13.336Z,11.50
2023-01-05T00:50:13.386Z,11.40
2023-01-05T00:51:13.318Z,11.50
2023-01-05T00:52:13.667Z,11.50
2023-01-05T00:53:13.963Z,11.40
2023-01-05T00:54:12.904Z,11.50
2023-01-05T00:55:13.188Z,11.50
2023-01-05T00:56:13.302Z,11.60
2023-01-05T00:57:13.246Z,11.50
2023-01-05T00:58:13.302Z,11.50
2023-01-05T00:59:13.231Z,11.40
2023-01-05T01:00:18.565Z,11.50
2023-01-05T01:01:13.702Z,11.40
2023-01-05T01:02:14.067Z,11.50
2023-01-05T01:03:13.181Z,11.60
2023-01-05T01:04:13.223Z,11.40
2023-01-05T01:05:13.318Z,11.60
2023-01-05T01:06:13.306Z,11.50
2023-01-05T01:07:13.324Z,11.60
2023-01-05T01:08:13.247Z,11.40
2023-01-05T01:09:13.188Z,11.40
2023-01-05T01:10:13.223Z,11.30
2023-01-05T01:11:13.287Z,11.40
2023-01-05T01:12:13.319Z,11.40
2023-01-05T01:13:13.370Z,11.30
2023-01-05T01:14:13.506Z,11.30
2023-01-05T01:15:13.511Z,11.30
2023-01-05T01:16:13.911Z,11.40
2023-01-05T01:17:12.995Z,11.30
2023-01-05T01:18:13.061Z,11.30
2023-01-05T01:19:13.153Z,11.20
2023-01-05T01:20:13.081Z,11.20
2023-01-05T01:21:13.254Z,11.20
2023-01-05T01:22:13.218Z,11.40
2023-01-05T01:23:13.196Z,11.30
2023-01-05T01:24:13.083Z,11.30
2023-01-05T01:25:12.989Z,11.40
2023-01-05T01:26:12.963Z,11.40
2023-01-05T01:27:13.424Z,11.20
2023-01-05T01:28:13.439Z,11.30
2023-01-05T01:29:13.389Z,11.30
2023-01-05T01:30:13.290Z,11.40
2023-01-05T01:31:13.252Z,11.30
2023-01-05T01:32:13.243Z,11.30
2023-01-05T01:33:13.333Z,11.50
2023-01-05T01:34:13.230Z,11.50
2023-01-05T01:35:13.141Z,11.30
2023-01-05T01:36:13.420Z,11.30
2023-01-05T01:37:13.467Z,11.30
2023-01-05T01:38:13.355Z,11.40
2023-01-05T01:39:13.311Z,11.40
2023-01-05T01:40:13.306Z,11.20
2023-01-05T01:41:13.356Z,11.40
2023-01-05T01:42:13.498Z,11.30
2023-01-05T01:43:14.004Z,11.50
2023-01-05T01:44:13.197Z,11.30
2023-01-05T01:45:13.135Z,11.30
2023-01-05T01:46:13.467Z,11.40
2023-01-05T01:47:13.525Z,11.40
2023-01-05T01:48:13.448Z,11.40
2023-01-05T01:49:13.650Z,11.30
2023-01-05T01:50:13.738Z,11.30
2023-01-05T01:51:13.581Z,11.20
2023-01-05T01:52:13.536Z,11.40
2023-01-05T01:53:13.470Z,11.20
2023-01-05T01:54:13.399Z,11.30
2023-01-05T01:55:13.311Z,11.30
2023-01-05T01:56:13.528Z,11.30
2023-01-05T01:57:13.521Z,11.40
2023-01-05T01:58:14.391Z,11.40
2023-01-05T01:59:13.549Z,11.40
2023-01-05T02:00:13.710Z,11.60
2023-01-05T02:01:13.997Z,11.40
2023-01-05T02:02:13.098Z,11.40
2023-01-05T02:03:13.245Z,11.40
2023-01-05T02:04:13.193Z,11.30
2023-01-05T02:05:13.420Z,11.30
2023-01-05T02:06:13.364Z,11.20
2023-01-05T02:07:13.604Z,11.30
2023-01-05T02:08:13.997Z,11.30
2023-01-05T02:09:13.086Z,11.20
2023-01-05T02:10:13.115Z,11.30
2023-01-05T02:11:13.201Z,11.20
2023-01-05T02:12:13.508Z,11.30
2023-01-05T02:13:13.592Z,11.20
2023-01-05T02:14:13.472Z,11.20
2023-01-05T02:15:13.516Z,11.30
2023-01-05T02:16:13.990Z,11.40
2023-01-05T02:17:13.194Z,11.30
2023-01-05T02:18:13.345Z,11.30
2023-01-05T02:19:13.662Z,11.20
2023-01-05T02:20:13.536Z,11.20
2023-01-05T02:21:17.084Z,11.20
2023-01-05T02:22:13.277Z,11.30
2023-01-05T02:23:13.158Z,11.20
2023-01-05T02:24:13.155Z,11.20
2023-01-05T02:25:13.037Z,11.10
2023-01-05T02:26:13.019Z,11.40
2023-01-05T02:27:12.896Z,11.30
2023-01-05T02:28:12.963Z,11.30
2023-01-05T02:29:13.295Z,11.20
2023-01-05T02:30:13.532Z,11.10
2023-01-05T02:31:13.532Z,11.10
2023-01-05T02:32:13.798Z,11.10
2023-01-05T02:33:13.890Z,11.30
2023-01-05T02:34:13.255Z,11.30
2023-01-05T02:35:13.251Z,11.20
2023-01-05T02:36:13.198Z,11.50
2023-01-05T02:37:13.443Z,11.30
2023-01-05T02:38:13.707Z,11.40
2023-01-05T02:39:13.648Z,11.10
2023-01-05T02:40:13.659Z,11.10
2023-01-05T02:41:13.478Z,11.20
2023-01-05T02:42:13.449Z,11.30
2023-01-05T02:43:13.349Z,11.30
2023-01-05T02:44:13.223Z,11.20
2023-01-05T02:45:13.383Z,11.30
2023-01-05T02:46:13.623Z,11.10
2023-01-05T02:47:13.547Z,11.20
2023-01-05T02:48:13.441Z,11.20
2023-01-05T02:49:13.349Z,11.10
2023-01-05T02:50:13.391Z,11.20
2023-01-05T02:51:13.753Z,11.00
2023-01-05T02:52:13.815Z,11.10
2023-01-05T02:53:13.783Z,11.00
2023-01-05T02:54:13.675Z,11.10
2023-01-05T02:55:13.599Z,11.10
2023-01-05T02:56:13.582Z,11.20
2023-01-05T02:57:13.557Z,11.00
2023-01-05T02:58:13.489Z,11.10
2023-01-05T02:59:13.409Z,11.00
2023-01-05T03:00:13.652Z,11.20
2023-01-05T03:01:13.872Z,11.20
2023-01-05T03:02:13.380Z,11.00
2023-01-05T03:03:13.497Z,11.10
2023-01-05T03:04:13.657Z,11.10
2023-01-05T03:05:13.884Z,10.90
2023-01-05T03:06:12.822Z,11.00
2023-01-05T03:07:14.159Z,10.90
2023-01-05T03:08:13.144Z,11.00
2023-01-05T03:09:13.223Z,10.90
2023-01-05T03:10:13.454Z,11.00
2023-01-05T03:11:13.574Z,11.00
2023-01-05T03:12:13.491Z,11.10
2023-01-05T03:13:13.544Z,10.90
2023-01-05T03:14:13.494Z,10.90
2023-01-05T03:15:13.611Z,11.00
2023-01-05T03:16:13.597Z,10.90
2023-01-05T03:17:13.786Z,10.90
2023-01-05T03:18:13.718Z,10.90
2023-01-05T03:19:18.818Z,11.00
2023-01-05T03:20:13.737Z,11.10
2023-01-05T03:21:13.895Z,11.10
2023-01-05T03:22:13.016Z,11.10
2023-01-05T03:23:13.347Z,10.90
2023-01-05T03:24:13.525Z,10.90
2023-01-05T03:25:13.573Z,10.90
2023-01-05T03:26:13.597Z,11.00
2023-01-05T03:27:14.841Z,10.90
2023-01-05T03:28:14.561Z,10.80
2023-01-05T03:29:13.833Z,11.30
2023-01-05T03:30:14.178Z,11.40
2023-01-05T03:31:13.431Z,11.30
2023-01-05T03:32:13.879Z,10.90
2023-01-05T03:33:14.237Z,10.90
2023-01-05T03:34:13.417Z,10.80
2023-01-05T03:35:13.509Z,10.80
2023-01-05T03:36:13.620Z,10.80
2023-01-05T03:37:13.969Z,10.80
2023-01-05T03:38:17.764Z,10.70
2023-01-05T03:39:13.623Z,10.90
2023-01-05T03:40:13.532Z,10.80
2023-01-05T03:41:13.403Z,10.70
2023-01-05T03:42:13.571Z,10.40
2023-01-05T03:43:13.642Z,10.50
2023-01-05T03:44:13.732Z,10.40
2023-01-05T03:45:13.748Z,10.30
2023-01-05T03:46:13.940Z,10.40
2023-01-05T03:47:13.220Z,10.30
2023-01-05T03:48:13.530Z,10.40
2023-01-05T03:49:13.475Z,10.40
2023-01-05T03:50:13.731Z,10.40
2023-01-05T03:51:14.171Z,10.40
2023-01-05T03:52:13.246Z,10.50
2023-01-05T03:53:13.373Z,10.40
2023-01-05T03:54:13.336Z,10.50
2023-01-05T03:55:13.332Z,10.50
2023-01-05T03:56:13.378Z,10.60
2023-01-05T03:57:13.464Z,10.60
2023-01-05T03:58:13.529Z,10.60
2023-01-05T03:59:13.524Z,10.80
2023-01-05T04:00:13.571Z,10.90
2023-01-05T04:01:13.816Z,10.90
2023-01-05T04:02:13.265Z,10.80
2023-01-05T04:03:13.527Z,10.80
2023-01-05T04:04:14.001Z,10.80
2023-01-05T04:05:14.947Z,10.90
2023-01-05T04:06:12.862Z,10.80
2023-01-05T04:07:14.597Z,10.90
2023-01-05T04:08:13.470Z,10.90
2023-01-05T04:09:13.515Z,10.70
2023-01-05T04:10:13.422Z,10.80
2023-01-05T04:11:13.474Z,10.80
2023-01-05T04:12:13.407Z,10.90
2023-01-05T04:13:13.603Z,10.50
2023-01-05T04:14:13.655Z,10.80
2023-01-05T04:15:13.651Z,10.70
2023-01-05T04:16:13.737Z,10.80
2023-01-05T04:17:13.782Z,10.70
2023-01-05T04:18:13.979Z,10.90
2023-01-05T04:19:13.114Z,10.80
2023-01-05T04:20:13.118Z,10.50
2023-01-05T04:21:13.242Z,10.70
2023-01-05T04:22:13.508Z,10.80
2023-01-05T04:23:13.519Z,10.90
2023-01-05T04:24:13.425Z,10.70
2023-01-05T04:25:13.394Z,10.60
2023-01-05T04:26:13.383Z,10.90
2023-01-05T04:27:13.493Z,10.70
2023-01-05T04:28:13.743Z,10.70
2023-01-05T04:29:14.058Z,10.70
2023-01-05T04:30:13.213Z,10.70
2023-01-05T04:31:13.432Z,10.70
2023-01-05T04:32:13.482Z,10.90
2023-01-05T04:33:13.603Z,10.70
2023-01-05T04:34:13.498Z,10.70
2023-01-05T04:35:13.660Z,10.70
2023-01-05T04:36:13.970Z,10.80
2023-01-05T04:37:13.235Z,10.80
2023-01-05T04:38:13.241Z,11.00
2023-01-05T04:39:13.122Z,10.90
2023-01-05T04:40:13.269Z,10.90
2023-01-05T04:41:13.453Z,10.70
2023-01-05T04:42:13.365Z,10.80
2023-01-05T04:43:13.534Z,10.70
2023-01-05T04:44:13.779Z,10.80
2023-01-05T04:45:13.687Z,10.80
2023-01-05T04:46:13.621Z,10.80
2023-01-05T04:47:13.885Z,10.80
2023-01-05T04:48:12.864Z,10.70
2023-01-05T04:49:13.885Z,10.80
2023-01-05T04:50:12.797Z,10.90
2023-01-05T04:51:13.887Z,10.50
2023-01-05T04:52:13.184Z,10.70
2023-01-05T04:53:13.274Z,10.70
2023-01-05T04:54:13.232Z,10.90
2023-01-05T04:55:13.532Z,10.60
2023-01-05T04:56:13.577Z,10.60
2023-01-05T04:57:13.534Z,10.70
2023-01-05T04:58:13.483Z,10.80
2023-01-05T04:59:13.341Z,10.90
2023-01-05T05:00:13.531Z,10.90
2023-01-05T05:01:13.634Z,10.50
2023-01-05T05:02:13.784Z,10.80
2023-01-05T05:03:13.837Z,11.00
2023-01-05T05:04:13.695Z,10.70
2023-01-05T05:05:13.670Z,10.90
2023-01-05T05:06:13.819Z,10.80
2023-01-05T05:07:13.926Z,10.90
2023-01-05T05:08:12.831Z,10.80
2023-01-05T05:09:13.843Z,11.00
2023-01-05T05:10:13.788Z,10.90
2023-01-05T05:11:13.692Z,10.80
2023-01-05T05:12:13.631Z,10.80
2023-01-05T05:13:18.624Z,10.80
2023-01-05T05:14:13.633Z,10.80
2023-01-05T05:15:13.577Z,11.00
2023-01-05T05:16:13.546Z,10.80
2023-01-05T05:17:13.807Z,10.90
2023-01-05T05:18:13.126Z,10.80
2023-01-05T05:19:13.131Z,11.00
2023-01-05T05:20:13.207Z,10.90
2023-01-05T05:21:13.315Z,11.00
2023-01-05T05:22:13.612Z,10.60
2023-01-05T05:23:13.535Z,10.80
2023-01-05T05:24:13.517Z,10.40
2023-01-05T05:25:13.559Z,10.50
2023-01-05T05:26:13.522Z,10.40
2023-01-05T05:27:13.451Z,10.60
2023-01-05T05:28:13.519Z,10.40
2023-01-05T05:29:13.507Z,10.50
2023-01-05T05:30:13.552Z,10.50
2023-01-05T05:31:13.594Z,10.30
2023-01-05T05:32:13.573Z,10.70
2023-01-05T05:33:13.578Z,10.50
2023-01-05T05:34:13.970Z,10.60
2023-01-05T05:35:13.249Z,10.50
2023-01-05T05:36:13.237Z,10.50
2023-01-05T05:37:13.190Z,10.70
2023-01-05T05:38:13.358Z,10.60
2023-01-05T05:39:13.490Z,10.40
2023-01-05T05:40:13.407Z,10.50
2023-01-05T05:41:13.853Z,10.50
2023-01-05T05:42:13.758Z,10.30
2023-01-05T05:43:13.820Z,10.30
2023-01-05T05:44:13.670Z,10.40
2023-01-05T05:45:13.590Z,10.30
2023-01-05T05:46:13.523Z,10.20
2023-01-05T05:47:13.946Z,10.30
2023-01-05T05:48:13.100Z,10.00
2023-01-05T05:49:12.999Z,10.20
2023-01-05T05:50:13.221Z,10.20
2023-01-05T05:51:13.120Z,10.30
2023-01-05T05:52:13.224Z,10.10
2023-01-05T05:53:13.294Z,10.30
2023-01-05T05:54:13.475Z,10.30
2023-01-05T05:55:13.350Z,10.00
2023-01-05T05:56:13.520Z,10.10
2023-01-05T05:57:13.557Z,10.20
2023-01-05T05:58:13.466Z,10.10
2023-01-05T05:59:13.456Z,10.00
2023-01-05T06:00:13.454Z,9.90
2023-01-05T06:01:13.855Z,10.10
2023-01-05T06:02:12.998Z,10.10
2023-01-05T06:03:13.643Z,10.10
2023-01-05T06:04:14.103Z,10.10
2023-01-05T06:05:13.134Z,10.00
2023-01-05T06:06:13.033Z,10.10
2023-01-05T06:07:13.222Z,10.00
2023-01-05T06:08:13.158Z,10.20
2023-01-05T06:09:13.105Z,10.00
2023-01-05T06:10:13.119Z,10.10
2023-01-05T06:11:13.161Z,10.00
2023-01-05T06:12:13.189Z,10.00
2023-01-05T06:13:13.224Z,10.10
2023-01-05T06:14:13.554Z,10.00
2023-01-05T06:15:13.543Z,9.90
2023-01-05T06:16:13.591Z,10.00
2023-01-05T06:17:13.548Z,10.10
2023-01-05T06:18:13.973Z,10.10
2023-01-05T06:19:13.233Z,10.20
2023-01-05T06:20:13.181Z,10.00
2023-01-05T06:21:13.038Z,10.20
2023-01-05T06:22:12.974Z,10.10
2023-01-05T06:23:13.068Z,10.20
2023-01-05T06:24:13.009Z,10.20
2023-01-05T06:25:13.011Z,10.10
2023-01-05T06:26:12.992Z,10.10
2023-01-05T06:27:13.235Z,9.90
2023-01-05T06:28:18.482Z,10.00
2023-01-05T06:29:13.625Z,9.90
2023-01-05T06:30:13.508Z,10.10
2023-01-05T06:31:13.844Z,10.10
2023-01-05T06:32:14.073Z,10.20
2023-01-05T06:33:13.086Z,9.90
2023-01-05T06:34:13.830Z,9.80
2023-01-05T06:35:13.837Z,9.80
2023-01-05T06:36:13.927Z,9.80
2023-01-05T06:37:13.085Z,9.70
2023-01-05T06:38:13.243Z,9.80
2023-01-05T06:39:13.675Z,9.70
2023-01-05T06:40:13.894Z,9.80
2023-01-05T06:41:13.095Z,9.80
2023-01-05T06:42:13.494Z,9.70
2023-01-05T06:43:13.543Z,9.80
2023-01-05T06:44:13.512Z,9.80
2023-01-05T06:45:13.486Z,9.90
2023-01-05T06:46:13.489Z,9.80
2023-01-05T06:47:13.801Z,10.10
2023-01-05T06:48:13.854Z,9.70
2023-01-05T06:49:13.724Z,9.90
2023-01-05T06:50:13.640Z,9.80
2023-01-05T06:51:13.685Z,9.70
2023-01-05T06:52:16.603Z,9.70
2023-01-05T06:53:13.060Z,9.80
2023-01-05T06:54:13.014Z,9.80
2023-01-05T06:55:12.999Z,9.90
2023-01-05T06:56:13.269Z,9.80
2023-01-05T06:57:13.230Z,9.70
2023-01-05T06:58:13.183Z,9.80
2023-01-05T06:59:13.109Z,9.60
2023-01-05T07:00:13.135Z,9.90
2023-01-05T07:01:13.447Z,9.90
2023-01-05T07:02:14.477Z,9.70
2023-01-05T07:03:13.768Z,9.80
2023-01-05T07:04:14.223Z,9.90
2023-01-05T07:05:13.676Z,9.80
2023-01-05T07:06:15.168Z,9.70
2023-01-05T07:07:13.271Z,9.70
2023-01-05T07:08:13.253Z,9.90
2023-01-05T07:09:13.379Z,9.80
2023-01-05T07:10:13.591Z,9.60
2023-01-05T07:11:13.504Z,9.80
2023-01-05T07:12:13.730Z,9.80
2023-01-05T07:13:14.153Z,9.80
2023-01-05T07:14:13.795Z,9.70
2023-01-05T07:15:13.778Z,9.80
2023-01-05T07:16:14.055Z,9.90
2023-01-05T07:17:12.997Z,9.80
2023-01-05T07:18:12.895Z,9.70
2023-01-05T07:19:12.730Z,9.80
2023-01-05T07:20:13.619Z,9.70
2023-01-05T07:21:13.816Z,9.80
2023-01-05T07:22:14.025Z,9.70
2023-01-05T07:23:13.364Z,9.80
2023-01-05T07:24:13.505Z,9.80
2023-01-05T07:25:13.552Z,9.80
2023-01-05T07:26:13.633Z,9.80
2023-01-05T07:27:13.727Z,9.70
2023-01-05T07:28:14.000Z,9.80
2023-01-05T07:29:13.336Z,9.90
2023-01-05T07:30:13.616Z,9.90
2023-01-05T07:31:13.540Z,9.90
2023-01-05T07:32:13.656Z,9.70
2023-01-05T07:33:13.601Z,9.90
2023-01-05T07:34:13.521Z,9.90
2023-01-05T07:35:13.669Z,9.80
2023-01-05T07:36:13.621Z,9.80
2023-01-05T07:37:13.544Z,10.00
2023-01-05T07:38:13.466Z,9.90
2023-01-05T07:39:13.650Z,9.90
2023-01-05T07:40:13.658Z,9.80
2023-01-05T07:41:13.702Z,9.90
2023-01-05T07:42:14.508Z,10.00
2023-01-05T07:43:13.453Z,10.00
2023-01-05T07:44:13.413Z,10.10
2023-01-05T07:45:13.577Z,10.20
2023-01-05T07:46:13.540Z,10.00
2023-01-05T07:47:13.991Z,10.00
2023-01-05T07:48:13.052Z,10.10
2023-01-05T07:49:13.265Z,10.10
2023-01-05T07:50:13.265Z,10.30
2023-01-05T07:51:13.120Z,10.10
2023-01-05T07:52:13.406Z,10.10
2023-01-05T07:53:13.371Z,9.90
2023-01-05T07:54:13.402Z,10.10
2023-01-05T07:55:13.366Z,9.90
2023-01-05T07:56:13.392Z,9.90
2023-01-05T07:57:13.366Z,9.90
2023-01-05T07:58:13.313Z,9.90
2023-01-05T07:59:13.486Z,10.00
2023-01-05T08:00:13.499Z,9.80
2023-01-05T08:01:13.726Z,9.90
2023-01-05T08:02:13.958Z,9.90
2023-01-05T08:03:13.008Z,10.00
2023-01-05T08:04:13.209Z,9.90
2023-01-05T08:05:13.269Z,10.00
2023-01-05T08:06:13.204Z,9.90
2023-01-05T08:07:13.328Z,10.10
2023-01-05T08:08:15.653Z,10.10
2023-01-05T08:09:13.342Z,10.20
2023-01-05T08:10:13.577Z,10.00
2023-01-05T08:11:13.701Z,9.90
2023-01-05T08:12:13.780Z,10.10
2023-01-05T08:13:13.690Z,10.10
2023-01-05T08:14:13.754Z,9.90
2023-01-05T08:15:14.000Z,10.00
2023-01-05T08:16:13.097Z,9.90
2023-01-05T08:17:13.100Z,10.10
2023-01-05T08:18:13.039Z,10.20
2023-01-05T08:19:13.397Z,10.10
2023-01-05T08:20:13.296Z,10.00
2023-01-05T08:21:13.130Z,10.10
2023-01-05T08:22:13.141Z,10.30
2023-01-05T08:23:13.075Z,10.30
2023-01-05T08:24:13.359Z,10.30
2023-01-05T08:25:13.215Z,10.40
2023-01-05T08:26:13.549Z,10.10
2023-01-05T08:27:13.578Z,10.00
2023-01-05T08:28:13.561Z,10.10
2023-01-05T08:29:14.051Z,10.00
2023-01-05T08:30:13.535Z,10.00
2023-01-05T08:31:13.645Z,10.20
2023-01-05T08:32:13.757Z,10.10
2023-01-05T08:33:13.829Z,10.00
2023-01-05T08:34:14.055Z,9.90
2023-01-05T08:35:13.005Z,9.80
2023-01-05T08:36:12.969Z,10.00
2023-01-05T08:37:12.928Z,9.80
2023-01-05T08:38:12.855Z,10.10
2023-01-05T08:39:13.782Z,9.90
2023-01-05T08:40:13.757Z,10.00
2023-01-05T08:41:13.674Z,9.90
2023-01-05T08:42:13.551Z,10.00
2023-01-05T08:43:13.514Z,10.00
2023-01-05T08:44:13.340Z,10.10
2023-01-05T08:45:13.280Z,10.30
2023-01-05T08:46:14.488Z,10.20
2023-01-05T08:47:13.375Z,10.20
2023-01-05T08:48:13.328Z,10.60
2023-01-05T08:49:13.396Z,10.50
2023-01-05T08:50:13.660Z,10.30
2023-01-05T08:51:14.188Z,10.40
2023-01-05T08:52:13.242Z,10.20
2023-01-05T08:53:13.323Z,10.30
2023-01-05T08:54:13.472Z,10.40
2023-01-05T08:55:13.608Z,10.30
2023-01-05T08:56:13.688Z,10.50
2023-01-05T08:57:15.062Z,10.70
2023-01-05T08:59:13.642Z,10.70
2023-01-05T09:00:14.130Z,10.60
2023-01-05T09:01:13.304Z,10.50
2023-01-05T09:02:13.596Z,10.50
2023-01-05T09:03:13.815Z,10.60
2023-01-05T09:04:13.991Z,10.90
2023-01-05T09:05:13.209Z,10.60
2023-01-05T09:06:13.231Z,10.40
2023-01-05T09:07:13.215Z,10.50
2023-01-05T09:08:13.428Z,10.40
2023-01-05T09:09:13.522Z,10.40
2023-01-05T09:10:13.473Z,10.30
2023-01-05T09:11:13.464Z,10.40
2023-01-05T09:12:13.608Z,10.30
2023-01-05T09:13:13.510Z,10.50
2023-01-05T09:14:13.467Z,10.40
2023-01-05T09:15:13.545Z,10.60
2023-01-05T09:16:13.582Z,10.60
2023-01-05T09:17:13.724Z,10.40
2023-01-05T09:18:13.647Z,10.50
2023-01-05T09:19:13.811Z,10.60
2023-01-05T09:20:18.987Z,10.80
2023-01-05T09:21:12.897Z,10.70
2023-01-05T09:22:12.848Z,11.00
2023-01-05T09:23:13.924Z,10.70
2023-01-05T09:24:13.433Z,10.90
2023-01-05T09:25:13.361Z,10.40
2023-01-05T09:26:13.228Z,10.20
2023-01-05T09:27:18.378Z,10.40
2023-01-05T09:28:13.184Z,10.30
2023-01-05T09:29:13.562Z,10.40
2023-01-05T09:30:13.531Z,10.50
2023-01-05T09:31:13.544Z,10.50
2023-01-05T09:32:13.475Z,10.20
2023-01-05T09:33:13.377Z,10.20
2023-01-05T09:34:13.431Z,10.40
2023-01-05T09:35:13.681Z,10.50
2023-01-05T09:36:13.592Z,10.30
2023-01-05T09:37:13.530Z,10.50
2023-01-05T09:38:13.572Z,10.20
2023-01-05T09:39:13.785Z,10.40
2023-01-05T09:40:13.843Z,10.30
2023-01-05T09:41:13.982Z,10.40
2023-01-05T09:42:12.893Z,10.50
2023-01-05T09:43:13.141Z,10.40
2023-01-05T09:44:13.262Z,10.40
2023-01-05T09:45:13.226Z,10.30
2023-01-05T09:46:13.608Z,10.30
2023-01-05T09:47:13.574Z,10.40
2023-01-05T09:48:13.551Z,10.60
2023-01-05T09:49:13.503Z,10.50
2023-01-05T09:50:13.385Z,10.70
2023-01-05T09:51:13.581Z,10.40
2023-01-05T09:52:13.818Z,10.30
2023-01-05T09:53:14.015Z,10.40
2023-01-05T09:54:13.262Z,10.30
2023-01-05T09:55:13.284Z,10.50
2023-01-05T09:56:13.780Z,10.40
2023-01-05T09:57:13.766Z,10.40
2023-01-05T09:58:13.685Z,10.60
2023-01-05T09:59:13.984Z,10.30
2023-01-05T10:00:12.917Z,10.40
2023-01-05T10:01:12.998Z,10.40
2023-01-05T10:02:12.905Z,10.50
2023-01-05T10:03:29.274Z,10.40
2023-01-05T10:04:13.456Z,10.40
2023-01-05T10:05:13.726Z,10.50
2023-01-05T10:06:13.902Z,10.50
2023-01-05T10:07:12.859Z,10.50
2023-01-05T10:08:13.776Z,10.50
2023-01-05T10:09:13.850Z,10.60
2023-01-05T10:10:13.887Z,10.50
2023-01-05T10:11:13.003Z,10.70
2023-01-05T10:12:12.986Z,10.70
2023-01-05T10:13:13.194Z,10.40
2023-01-05T10:14:13.259Z,10.80
2023-01-05T10:15:13.197Z,10.80
2023-01-05T10:16:13.272Z,10.80
2023-01-05T10:17:40.024Z,10.80
2023-01-05T10:18:13.606Z,10.80
2023-01-05T10:19:13.807Z,10.40
2023-01-05T10:20:13.795Z,10.50
2023-01-05T10:21:13.827Z,10.60
2023-01-05T10:22:13.726Z,10.60
2023-01-05T10:23:14.062Z,10.70
2023-01-05T10:24:13.061Z,10.70
2023-01-05T10:25:13.324Z,10.70
2023-01-05T10:26:13.285Z,10.80
2023-01-05T10:27:24.811Z,10.80
2023-01-05T10:28:13.759Z,10.60
2023-01-05T10:29:13.715Z,10.70
2023-01-05T10:30:13.775Z,10.80
2023-01-05T10:31:13.742Z,10.90
2023-01-05T10:32:13.759Z,10.50
2023-01-05T10:33:27.787Z,10.50
2023-01-05T10:34:16.398Z,10.60
2023-01-05T10:35:33.964Z,10.50
2023-01-05T10:36:14.599Z,10.50
2023-01-05T10:37:13.688Z,10.60
2023-01-05T10:38:13.667Z,10.80
2023-01-05T10:39:13.693Z,10.70
2023-01-05T10:40:13.776Z,10.70
2023-01-05T10:41:14.162Z,10.90
2023-01-05T10:42:13.381Z,10.60
2023-01-05T10:43:13.303Z,10.70
2023-01-05T10:44:13.301Z,11.10
2023-01-05T10:45:13.275Z,11.20
2023-01-05T10:46:35.030Z,11.30
2023-01-05T10:47:13.203Z,11.00
2023-01-05T10:48:13.488Z,11.20
2023-01-05T10:49:13.583Z,11.40
2023-01-05T10:50:13.602Z,11.40
2023-01-05T10:51:13.683Z,11.50
2023-01-05T10:52:13.945Z,11.90
2023-01-05T10:53:12.988Z,11.60
2023-01-05T10:54:13.353Z,11.30
2023-01-05T10:55:13.497Z,11.40
2023-01-05T10:56:13.956Z,11.50
2023-01-05T10:57:13.028Z,11.80
2023-01-05T10:58:13.107Z,11.50
2023-01-05T10:59:13.082Z,11.20
2023-01-05T11:00:13.165Z,11.20
2023-01-05T11:01:13.309Z,11.60
2023-01-05T11:02:13.347Z,11.30
2023-01-05T11:03:13.507Z,11.20
2023-01-05T11:04:34.513Z,11.00
2023-01-05T11:05:13.176Z,11.10
2023-01-05T11:06:13.422Z,11.30
2023-01-05T11:07:13.784Z,11.10
2023-01-05T11:08:14.018Z,11.20
2023-01-05T11:09:18.749Z,11.00
2023-01-05T11:10:13.687Z,11.10
2023-01-05T11:11:13.803Z,10.90
2023-01-05T11:12:13.927Z,11.20
2023-01-05T11:13:13.185Z,11.30
2023-01-05T11:14:13.265Z,11.40
2023-01-05T11:15:13.227Z,11.30
2023-01-05T11:16:13.665Z,11.30
2023-01-05T11:17:13.673Z,11.50
2023-01-05T11:18:13.716Z,11.40
2023-01-05T11:19:13.539Z,11.40
2023-01-05T11:20:13.470Z,11.30
2023-01-05T11:21:13.367Z,11.20
2023-01-05T11:22:13.292Z,11.60
2023-01-05T11:23:13.378Z,11.10
2023-01-05T11:24:13.196Z,11.40
2023-01-05T11:25:13.153Z,11.40
2023-01-05T11:26:13.374Z,11.20
2023-01-05T11:27:15.147Z,11.30
2023-01-05T11:28:13.113Z,11.20
2023-01-05T11:29:13.220Z,11.20
2023-01-05T11:30:23.859Z,11.20
2023-01-05T11:31:14.606Z,11.10
2023-01-05T11:32:27.693Z,11.20
2023-01-05T11:33:16.233Z,11.00
2023-01-05T11:34:13.458Z,11.20
2023-01-05T11:35:13.508Z,11.10
2023-01-05T11:36:13.825Z,11.30
2023-01-05T11:37:17.046Z,11.30
2023-01-05T11:38:13.882Z,11.40
2023-01-05T11:39:22.824Z,11.30
2023-01-05T11:40:13.897Z,11.20
2023-01-05T11:41:13.222Z,11.10
2023-01-05T11:42:13.311Z,11.30
2023-01-05T11:43:13.354Z,11.30
2023-01-05T11:44:14.755Z,11.20
2023-01-05T11:45:13.755Z,11.20
2023-01-05T11:46:14.262Z,11.10
2023-01-05T11:47:13.319Z,11.00
2023-01-05T11:48:13.266Z,11.10
2023-01-05T11:49:13.308Z,11.30
2023-01-05T11:50:13.759Z,11.30
2023-01-05T11:51:27.494Z,11.10
2023-01-05T11:52:18.742Z,11.20
2023-01-05T11:53:13.849Z,11.30
2023-01-05T11:54:14.162Z,11.30
2023-01-05T11:55:13.245Z,11.20
2023-01-05T11:56:23.292Z,11.20
2023-01-05T11:57:13.430Z,11.30
2023-01-05T11:58:19.803Z,11.20
2023-01-05T11:59:13.252Z,11.40
2023-01-05T12:00:13.545Z,11.40
2023-01-05T12:01:13.848Z,11.30
2023-01-05T12:02:12.818Z,11.20
2023-01-05T12:03:14.177Z,11.50
2023-01-05T12:04:18.599Z,11.20
2023-01-05T12:05:13.900Z,11.40
2023-01-05T12:06:12.833Z,11.50
2023-01-05T12:07:18.918Z,11.50
2023-01-05T12:08:12.985Z,11.40
2023-01-05T12:09:18.773Z,11.30
2023-01-05T12:10:13.824Z,11.00
2023-01-05T12:11:14.052Z,11.30
2023-01-05T12:12:13.083Z,11.50
2023-01-05T12:13:13.261Z,11.50
2023-01-05T12:14:13.637Z,11.30
2023-01-05T12:15:13.681Z,11.50
2023-01-05T12:16:13.954Z,11.30
2023-01-05T12:17:13.042Z,11.10
2023-01-05T12:18:13.184Z,11.20
2023-01-05T12:19:13.358Z,11.20
2023-01-05T12:20:13.442Z,11.40
2023-01-05T12:21:13.575Z,11.40
2023-01-05T12:22:14.097Z,11.50
2023-01-05T12:23:23.381Z,11.50
2023-01-05T12:24:13.293Z,11.70
2023-01-05T12:25:13.313Z,11.30
2023-01-05T12:26:13.454Z,11.40
2023-01-05T12:27:13.492Z,11.40
2023-01-05T12:28:23.838Z,11.50
2023-01-05T12:34:14.079Z,11.60
2023-01-05T12:35:13.010Z,11.40
2023-01-05T12:36:12.950Z,11.40
2023-01-05T12:37:13.352Z,11.50
2023-01-05T12:38:13.405Z,11.90
2023-01-05T12:39:13.668Z,11.40
2023-01-05T12:40:13.569Z,11.40
2023-01-05T12:41:13.527Z,11.50
2023-01-05T12:42:13.868Z,11.90
2023-01-05T12:43:13.977Z,11.30
2023-01-05T12:44:12.991Z,11.60
2023-01-05T12:45:18.115Z,11.60
2023-01-05T12:46:13.233Z,11.20
2023-01-05T12:47:13.212Z,11.40
2023-01-05T12:48:13.503Z,11.40
2023-01-05T12:49:13.421Z,11.30
2023-01-05T12:50:13.337Z,11.50
2023-01-05T12:51:13.745Z,11.60
2023-01-05T12:52:13.863Z,11.60
2023-01-05T12:53:13.979Z,11.60
2023-01-05T12:54:12.852Z,11.60
2023-01-05T12:55:13.794Z,11.50
2023-01-05T12:56:13.723Z,11.60
2023-01-05T12:57:13.841Z,11.70
2023-01-05T12:58:13.945Z,11.50
2023-01-05T12:59:12.946Z,11.60
2023-01-05T13:00:13.210Z,11.70
2023-01-05T13:01:13.239Z,11.60